Time;durP1;ratioP1;P1;durP2;ratioP2;P2;SDS_P1;SDS_P2;PMS_P1;PMS_P2;Temp;Humidity;BMP_temperature;BMP_pressure;BME280_temperature;BME280_humidity;BME280_pressure;Samples;Min_cycle;Max_cycle;Signal;HPM_P1;HPM_P2
2023/09/14 00:00:46;;;;;;;2.47;0.55;;;;;;;12.00;48.41;102239.75;5023876;28;20040;-71
2023/09/14 00:03:12;;;;;;;4.00;0.30;;;;;;;11.88;49.04;102226.94;5018918;28;20602;-71
2023/09/14 00:05:42;;;;;;;0.93;0.52;;;;;;;11.61;49.20;102233.66;5019397;28;20168;-71
2023/09/14 00:08:09;;;;;;;2.85;0.35;;;;;;;11.59;49.20;102230.22;5019721;28;20114;-71
2023/09/14 00:10:34;;;;;;;2.38;0.30;;;;;;;11.61;49.40;102231.03;5018889;28;20136;-70
2023/09/14 00:13:00;;;;;;;2.83;0.30;;;;;;;11.51;50.08;102219.94;5021983;28;20063;-70
2023/09/14 00:15:26;;;;;;;1.77;0.30;;;;;;;11.62;49.56;102227.50;5021962;28;20498;-70
2023/09/14 00:17:52;;;;;;;9.05;0.30;;;;;;;11.73;49.46;102222.03;5016975;28;20041;-70
2023/09/14 00:20:20;;;;;;;2.15;0.30;;;;;;;11.76;49.44;102233.31;5019530;28;20033;-68
2023/09/14 00:22:47;;;;;;;3.28;0.38;;;;;;;11.87;49.39;102230.47;5019048;28;20405;-68
2023/09/14 00:25:13;;;;;;;0.43;0.10;;;;;;;11.98;49.18;102232.84;5020714;28;20029;-70
2023/09/14 00:27:39;;;;;;;1.88;0.30;;;;;;;11.97;49.00;102237.19;5021774;28;20412;-70
2023/09/14 00:30:05;;;;;;;2.42;0.55;;;;;;;12.05;48.92;102239.66;5027540;28;20025;-68
2023/09/14 00:32:31;;;;;;;3.50;0.68;;;;;;;12.06;48.77;102238.75;5021294;28;21215;-69
2023/09/14 00:34:57;;;;;;;2.60;0.57;;;;;;;11.98;49.32;102238.94;5045017;28;20449;-69
2023/09/14 00:37:22;;;;;;;3.30;0.45;;;;;;;11.87;49.66;102241.81;5041071;28;20041;-69
2023/09/14 00:39:48;;;;;;;4.28;0.38;;;;;;;11.83;49.79;102234.91;5039381;28;20033;-70
2023/09/14 00:42:14;;;;;;;3.08;0.38;;;;;;;11.90;49.77;102240.03;5020599;28;20049;-68
2023/09/14 00:44:39;;;;;;;1.38;0.30;;;;;;;11.86;49.71;102241.84;5023700;28;20128;-70
2023/09/14 00:47:05;;;;;;;1.92;0.20;;;;;;;11.98;49.50;102241.56;5026548;28;20032;-70
2023/09/14 00:49:30;;;;;;;1.95;0.40;;;;;;;12.09;49.13;102249.16;5025387;28;20064;-68
2023/09/14 00:51:56;;;;;;;1.00;0.20;;;;;;;12.11;49.37;102238.63;5028143;28;20617;-68
2023/09/14 00:54:22;;;;;;;2.08;0.20;;;;;;;12.19;49.30;102240.16;5036860;28;20120;-68
2023/09/14 00:56:48;;;;;;;2.40;0.30;;;;;;;12.33;49.17;102238.94;5023428;28;20561;-68
2023/09/14 00:59:13;;;;;;;4.93;0.40;;;;;;;12.43;48.50;102245.69;5033817;28;20044;-68
2023/09/14 01:01:39;;;;;;;1.50;0.20;;;;;;;12.42;48.13;102241.31;5027270;28;20033;-68
2023/09/14 01:04:05;;;;;;;3.55;0.30;;;;;;;12.33;48.22;102241.56;5037928;28;20053;-72
2023/09/14 01:06:32;;;;;;;1.52;0.20;;;;;;;12.35;48.50;102239.78;5023086;28;20052;-72
2023/09/14 01:08:58;;;;;;;1.88;0.15;;;;;;;12.38;48.76;102247.53;5021078;28;20044;-71
2023/09/14 01:11:23;;;;;;;3.33;0.30;;;;;;;12.43;48.63;102250.94;5026843;28;20163;-72
2023/09/14 01:14:18;;;;;;;2.47;0.30;;;;;;;12.33;48.80;102252.91;5022624;28;20518;-71
2023/09/14 01:17:08;;;;;;;2.03;0.32;;;;;;;12.31;48.78;102248.59;5007445;28;20024;-70
2023/09/14 01:19:38;;;;;;;5.25;0.35;;;;;;;12.26;49.28;102248.72;4991183;28;20560;-70
2023/09/14 01:22:16;;;;;;;2.90;0.28;;;;;;;12.31;48.95;102240.75;5027675;28;20028;-71
2023/09/14 01:24:57;;;;;;;1.45;0.43;;;;;;;12.31;49.17;102246.84;5024365;28;20033;-70
2023/09/14 01:27:24;;;;;;;1.02;0.20;;;;;;;12.21;49.30;102251.47;5036927;28;20029;-71
2023/09/14 01:29:50;;;;;;;2.75;0.13;;;;;;;12.29;49.19;102246.91;5021700;28;20083;-71
2023/09/14 01:32:16;;;;;;;1.88;0.30;;;;;;;12.20;50.03;102239.28;5018278;28;20034;-73
2023/09/14 01:34:42;;;;;;;0.60;0.17;;;;;;;12.15;49.72;102246.38;5039526;28;20028;-74
2023/09/14 01:37:07;;;;;;;0.63;0.20;;;;;;;12.19;49.64;102245.41;5024058;28;20691;-73
2023/09/14 01:39:35;;;;;;;4.13;0.40;;;;;;;12.04;49.42;102243.16;5003372;28;20692;-74
2023/09/14 01:42:02;;;;;;;1.15;0.20;;;;;;;11.98;49.79;102251.19;5011274;28;20032;-73
2023/09/14 01:44:28;;;;;;;2.50;0.32;;;;;;;11.92;49.94;102241.69;5025525;28;20061;-73
2023/09/14 01:46:54;;;;;;;1.25;0.40;;;;;;;11.79;50.39;102248.97;5027493;28;20131;-74
2023/09/14 01:49:20;;;;;;;4.80;0.20;;;;;;;11.65;50.66;102241.41;5033636;28;20059;-73
2023/09/14 01:51:46;;;;;;;2.15;0.30;;;;;;;11.63;50.63;102244.97;5028643;28;20039;-73
2023/09/14 01:54:11;;;;;;;1.48;0.40;;;;;;;11.62;50.76;102246.72;5023625;28;20091;-73
2023/09/14 01:56:38;;;;;;;1.20;0.20;;;;;;;11.78;50.46;102241.19;5028253;28;20033;-74
2023/09/14 01:59:03;;;;;;;2.50;0.10;;;;;;;11.72;50.55;102241.28;5021506;28;20042;-73
2023/09/14 02:01:29;;;;;;;1.20;0.20;;;;;;;11.68;50.37;102236.09;5023474;28;20049;-73
2023/09/14 02:03:55;;;;;;;1.05;0.20;;;;;;;11.72;50.30;102230.81;5040051;28;20049;-75
2023/09/14 02:06:20;;;;;;;3.25;0.30;;;;;;;11.74;50.20;102229.88;5042506;28;20809;-73
2023/09/14 02:08:46;;;;;;;1.58;0.10;;;;;;;11.58;50.48;102221.50;5023756;28;20045;-73
2023/09/14 02:11:13;;;;;;;4.53;0.32;;;;;;;11.44;50.76;102224.44;5023522;28;20040;-73
2023/09/14 02:13:42;;;;;;;3.03;0.28;;;;;;;11.48;50.93;102216.50;5020822;28;20036;-70
2023/09/14 02:16:08;;;;;;;1.08;0.10;;;;;;;11.60;50.42;102218.88;5019992;28;20044;-70
2023/09/14 02:18:35;;;;;;;2.30;0.13;;;;;;;11.75;50.20;102212.38;5036441;28;20420;-72
2023/09/14 02:21:00;;;;;;;1.33;0.50;;;;;;;11.74;50.28;102219.38;5019754;28;20033;-71
2023/09/14 02:23:26;;;;;;;0.68;0.10;;;;;;;11.74;50.27;102216.78;5019092;28;20051;-72
2023/09/14 02:25:51;;;;;;;2.03;0.20;;;;;;;11.66;50.05;102210.84;5037757;28;20105;-70
2023/09/14 02:28:20;;;;;;;0.52;0.10;;;;;;;11.64;50.28;102212.63;5019588;28;20514;-70
2023/09/14 02:30:47;;;;;;;1.25;0.40;;;;;;;11.61;50.38;102204.84;5020026;28;20094;-70
2023/09/14 02:33:13;;;;;;;3.83;0.22;;;;;;;11.48;50.72;102203.41;5022252;28;20360;-71
2023/09/14 02:35:39;;;;;;;1.00;0.35;;;;;;;11.54;50.92;102216.38;5020588;28;21475;-71
2023/09/14 02:38:05;;;;;;;0.70;0.20;;;;;;;11.58;50.83;102212.78;5038180;28;20124;-71
2023/09/14 02:40:31;;;;;;;0.85;0.35;;;;;;;11.58;50.72;102211.03;5023422;28;20069;-71
2023/09/14 02:42:57;;;;;;;1.00;0.30;;;;;;;11.49;50.92;102210.38;5017926;28;20025;-71
2023/09/14 02:45:23;;;;;;;4.97;0.20;;;;;;;11.46;50.96;102209.56;5020537;28;20258;-71
2023/09/14 02:47:49;;;;;;;1.50;0.25;;;;;;;11.51;51.15;102205.94;5017682;28;20635;-71
2023/09/14 02:50:14;;;;;;;2.53;0.28;;;;;;;11.52;51.19;102212.94;5026354;28;20223;-71
2023/09/14 02:52:40;;;;;;;1.50;0.50;;;;;;;11.62;51.12;102219.66;5024594;28;20044;-71
2023/09/14 02:55:06;;;;;;;0.73;0.20;;;;;;;11.73;51.17;102217.69;5010695;28;20036;-71
2023/09/14 02:57:32;;;;;;;2.05;0.68;;;;;;;11.70;50.72;102209.88;5019936;28;20068;-71
2023/09/14 02:59:58;;;;;;;1.45;0.40;;;;;;;11.68;50.97;102214.28;5024245;28;20120;-71
2023/09/14 03:02:27;;;;;;;1.73;0.45;;;;;;;11.63;50.78;102210.91;5034747;28;20036;-71
2023/09/14 03:04:53;;;;;;;2.00;0.30;;;;;;;11.57;51.18;102211.06;5037079;28;20113;-71
2023/09/14 03:07:18;;;;;;;2.50;0.75;;;;;;;11.68;51.02;102214.28;5020536;28;20034;-71
2023/09/14 03:09:44;;;;;;;3.53;0.50;;;;;;;11.73;50.96;102219.41;5019395;28;20033;-71
2023/09/14 03:12:10;;;;;;;3.47;0.75;;;;;;;11.83;50.71;102208.72;5044704;28;20037;-70
2023/09/14 03:14:35;;;;;;;0.77;0.25;;;;;;;11.90;50.19;102219.91;5016554;28;20032;-71
2023/09/14 03:17:01;;;;;;;5.05;0.77;;;;;;;11.98;50.13;102209.25;5025197;28;20032;-71
2023/09/14 03:19:27;;;;;;;6.53;0.55;;;;;;;12.00;49.64;102220.53;5021280;28;20077;-71
2023/09/14 03:21:53;;;;;;;2.83;0.40;;;;;;;11.90;49.64;102214.66;5025661;28;20307;-71
2023/09/14 03:24:18;;;;;;;2.25;0.47;;;;;;;12.02;49.56;102218.75;5017671;28;20036;-70
2023/09/14 03:26:44;;;;;;;1.08;0.30;;;;;;;11.99;49.29;102214.44;5040046;28;20586;-70
2023/09/14 03:29:10;;;;;;;2.05;0.20;;;;;;;11.84;49.07;102215.69;5023245;28;20083;-70
2023/09/14 03:31:35;;;;;;;3.83;0.35;;;;;;;11.90;48.89;102208.56;5023971;28;20568;-70
2023/09/14 03:34:02;;;;;;;1.15;0.30;;;;;;;11.95;49.28;102218.03;5017843;28;20039;-70
2023/09/14 03:36:28;;;;;;;1.27;0.43;;;;;;;11.97;49.23;102215.38;5001913;28;20052;-71
2023/09/14 03:38:54;;;;;;;1.80;0.30;;;;;;;11.96;49.42;102208.44;5016756;28;20212;-71
2023/09/14 03:41:26;;;;;;;4.35;0.50;;;;;;;11.90;48.95;102214.66;5040739;28;20080;-70
2023/09/14 03:43:51;;;;;;;1.58;0.25;;;;;;;12.00;49.34;102221.41;5034294;28;20101;-70
2023/09/14 03:46:17;;;;;;;5.22;0.35;;;;;;;12.08;49.20;102223.84;5035170;28;20043;-71
2023/09/14 03:48:42;;;;;;;4.38;0.20;;;;;;;11.98;49.08;102228.47;5025097;28;20060;-71
2023/09/14 03:51:08;;;;;;;2.88;0.20;;;;;;;11.87;48.92;102220.84;5019910;28;20041;-70
2023/09/14 03:53:34;;;;;;;1.15;0.20;;;;;;;11.87;49.31;102222.63;5017247;28;20053;-70
2023/09/14 03:55:59;;;;;;;2.05;0.40;;;;;;;11.92;49.00;102222.50;5020101;28;20033;-70
2023/09/14 03:58:26;;;;;;;2.17;0.50;;;;;;;11.91;48.89;102221.66;5019536;28;20414;-72
2023/09/14 04:00:53;;;;;;;3.53;0.45;;;;;;;11.98;49.02;102222.38;5009605;28;20133;-69
2023/09/14 04:03:19;;;;;;;4.40;0.63;;;;;;;11.98;48.81;102217.13;5021636;28;20037;-72
2023/09/14 04:05:45;;;;;;;1.95;0.30;;;;;;;12.02;48.92;102222.25;5028982;28;20530;-68
2023/09/14 04:08:11;;;;;;;1.83;0.20;;;;;;;12.10;48.23;102223.81;5013869;28;20036;-69
2023/09/14 04:10:37;;;;;;;1.10;0.20;;;;;;;12.05;48.57;102218.69;5025994;28;20037;-71
2023/09/14 04:13:32;;;;;;;1.15;0.30;;;;;;;11.95;48.59;102227.66;5020679;28;20045;-70
2023/09/14 04:16:05;;;;;;;6.93;0.35;;;;;;;12.02;48.39;102218.75;5041068;28;20031;-66
2023/09/14 04:18:38;;;;;;;3.90;0.30;;;;;;;12.06;48.78;102218.63;5022349;28;20045;-69
2023/09/14 04:21:05;;;;;;;2.72;0.52;;;;;;;12.13;48.62;102219.34;5027914;28;20098;-69
2023/09/14 04:23:31;;;;;;;3.25;0.50;;;;;;;11.67;47.91;102217.81;5024479;28;21037;-69
2023/09/14 04:25:59;;;;;;;2.30;0.28;;;;;;;11.78;47.91;102215.84;5028202;28;20029;-70
2023/09/14 04:28:25;;;;;;;5.22;0.20;;;;;;;11.98;47.76;102217.97;5025628;28;20040;-69
2023/09/14 04:30:59;;;;;;;0.88;0.20;;;;;;;11.98;47.90;102215.34;5043708;28;20140;-69
2023/09/14 04:33:25;;;;;;;3.38;0.20;;;;;;;12.06;47.92;102215.16;5039018;28;20033;-68
2023/09/14 04:36:02;;;;;;;0.68;0.13;;;;;;;12.06;48.17;102226.50;5027449;28;20255;-67
2023/09/14 04:38:28;;;;;;;4.47;0.52;;;;;;;12.03;48.45;102230.97;5041359;28;20048;-68
2023/09/14 04:40:54;;;;;;;1.48;0.47;;;;;;;12.00;48.47;102228.41;5043169;28;20028;-69
2023/09/14 04:43:22;;;;;;;5.90;0.20;;;;;;;12.00;48.61;102225.78;5046020;28;20052;-70
2023/09/14 04:45:47;;;;;;;3.83;0.40;;;;;;;12.01;48.88;102220.50;5043694;28;20644;-67
2023/09/14 04:48:13;;;;;;;5.18;0.30;;;;;;;12.06;48.70;102229.09;5022087;28;20041;-71
2023/09/14 04:50:41;;;;;;;3.70;0.20;;;;;;;12.08;48.77;102229.09;5011975;28;20032;-70
2023/09/14 04:53:06;;;;;;;2.35;0.50;;;;;;;12.12;48.32;102225.50;5023206;28;20056;-67
2023/09/14 04:55:32;;;;;;;2.67;0.20;;;;;;;12.11;48.14;102234.25;5022027;28;20100;-67
2023/09/14 04:57:57;;;;;;;1.83;0.60;;;;;;;12.14;48.12;102225.47;5022432;28;20411;-73
2023/09/14 05:00:23;;;;;;;1.15;0.40;;;;;;;12.14;48.08;102238.56;5025692;28;20033;-73
2023/09/14 05:02:48;;;;;;;3.72;0.40;;;;;;;12.21;47.59;102243.59;5021236;28;20052;-74
2023/09/14 05:05:14;;;;;;;1.60;0.30;;;;;;;12.18;48.08;102246.31;5029097;28;20120;-70
2023/09/14 05:07:42;;;;;;;2.75;0.22;;;;;;;12.12;47.86;102246.47;5035855;28;20072;-71
2023/09/14 05:10:09;;;;;;;3.20;0.50;;;;;;;12.11;48.07;102243.88;5027546;28;20029;-71
2023/09/14 05:12:35;;;;;;;2.55;0.40;;;;;;;12.21;48.42;102240.97;5020671;28;20506;-71
2023/09/14 05:15:00;;;;;;;9.73;0.55;;;;;;;12.13;47.98;102248.16;5026425;28;20094;-70
2023/09/14 05:17:27;;;;;;;3.90;0.40;;;;;;;12.18;48.67;102241.06;5039783;28;20044;-71
2023/09/14 05:19:53;;;;;;;3.00;0.20;;;;;;;12.24;48.64;102246.13;5023378;28;20025;-72
2023/09/14 05:22:20;;;;;;;3.70;0.40;;;;;;;12.17;48.60;102239.31;5024214;28;20037;-71
2023/09/14 05:24:46;;;;;;;1.85;0.20;;;;;;;12.21;48.82;102255.84;5020247;28;20059;-71
2023/09/14 05:27:12;;;;;;;4.30;0.30;;;;;;;12.29;48.68;102252.16;5025884;28;20079;-71
2023/09/14 05:29:37;;;;;;;4.25;0.32;;;;;;;12.35;48.67;102255.50;5015634;28;20529;-74
2023/09/14 05:32:04;;;;;;;1.67;0.77;;;;;;;12.39;48.66;102254.53;5027251;28;20028;-70
2023/09/14 05:34:30;;;;;;;4.75;0.40;;;;;;;12.45;48.10;102259.63;5018712;28;20129;-69
2023/09/14 05:36:56;;;;;;;1.02;0.30;;;;;;;12.48;47.74;102264.78;5026271;28;20033;-69
2023/09/14 05:39:22;;;;;;;1.48;0.50;;;;;;;12.53;47.75;102268.13;5020286;28;20120;-70
2023/09/14 05:41:47;;;;;;;0.73;0.30;;;;;;;12.59;47.68;102260.09;5022698;28;20637;-68
2023/09/14 05:44:13;;;;;;;1.35;0.30;;;;;;;12.60;47.92;102264.47;5003605;28;20560;-69
2023/09/14 05:46:39;;;;;;;2.03;1.02;;;;;;;12.58;47.72;102271.50;5009169;28;20175;-70
2023/09/14 05:49:06;;;;;;;2.53;0.60;;;;;;;12.52;47.81;102274.28;5034223;28;20061;-70
2023/09/14 05:51:32;;;;;;;3.15;0.30;;;;;;;12.41;48.56;102273.72;5022066;28;20486;-71
2023/09/14 05:53:58;;;;;;;2.95;0.30;;;;;;;12.46;48.27;102271.81;5025275;28;20467;-70
2023/09/14 05:56:25;;;;;;;4.18;0.93;;;;;;;12.43;48.75;102277.16;5023220;28;20037;-70
2023/09/14 05:58:51;;;;;;;8.20;0.68;;;;;;;12.42;48.75;102284.16;5017231;28;20049;-70
2023/09/14 06:01:16;;;;;;;4.43;0.40;;;;;;;12.55;49.17;102275.97;5024404;28;20068;-69
2023/09/14 06:03:42;;;;;;;3.40;0.40;;;;;;;12.62;48.40;102288.00;5034399;28;20573;-69
2023/09/14 06:06:07;;;;;;;1.02;0.30;;;;;;;12.43;48.88;102274.53;5018562;28;20064;-69
2023/09/14 06:08:33;;;;;;;1.52;0.40;;;;;;;12.58;48.96;102282.00;5009560;28;22861;-68
2023/09/14 06:11:03;;;;;;;3.63;0.40;;;;;;;12.63;48.85;102285.34;5025618;28;20269;-68
2023/09/14 06:13:36;;;;;;;2.42;0.40;;;;;;;12.44;49.16;102284.09;5020346;28;20055;-68
2023/09/14 06:16:02;;;;;;;7.25;0.75;;;;;;;12.68;48.84;102287.84;5020752;28;20020;-67
2023/09/14 06:18:50;;;;;;;6.75;0.32;;;;;;;12.81;48.17;102289.28;5015540;28;20110;-65
2023/09/14 06:21:18;;;;;;;3.13;0.32;;;;;;;12.98;48.39;102287.94;5005954;28;20196;-69
2023/09/14 06:23:46;;;;;;;1.88;0.47;;;;;;;12.98;48.63;102290.56;5014272;28;20080;-68
2023/09/14 06:26:13;;;;;;;3.22;0.40;;;;;;;12.82;49.32;102290.13;5021890;28;20056;-68
2023/09/14 06:28:41;;;;;;;2.45;0.47;;;;;;;13.04;48.97;102290.41;5020138;28;20577;-68
2023/09/14 06:31:09;;;;;;;6.88;0.65;;;;;;;13.18;48.66;102285.63;5021025;28;20483;-69
2023/09/14 06:33:37;;;;;;;4.72;0.35;;;;;;;13.31;48.51;102291.38;5010024;28;20060;-68
2023/09/14 06:36:05;;;;;;;4.03;0.30;;;;;;;13.35;48.54;102294.81;5020572;28;20095;-69
2023/09/14 06:38:31;;;;;;;2.22;0.52;;;;;;;13.20;48.43;102293.47;5022537;28;20048;-69
2023/09/14 06:40:59;;;;;;;2.92;0.30;;;;;;;13.07;49.43;102295.56;5017848;28;20041;-70
2023/09/14 06:43:29;;;;;;;6.47;0.57;;;;;;;12.84;50.18;102298.84;5012490;28;20033;-69
2023/09/14 06:46:04;;;;;;;0.80;0.40;;;;;;;12.96;50.07;102293.25;5016326;28;20040;-68
2023/09/14 06:48:32;;;;;;;5.47;0.65;;;;;;;13.22;50.11;102296.91;5022137;28;20040;-68
2023/09/14 06:50:58;;;;;;;1.75;0.65;;;;;;;13.41;49.65;102297.25;5020055;28;21390;-69
2023/09/14 06:53:23;;;;;;;4.25;0.60;;;;;;;13.51;49.10;102301.31;5023368;28;20033;-68
2023/09/14 06:55:49;;;;;;;5.68;1.25;;;;;;;13.73;49.02;102301.56;5031373;28;20123;-68
2023/09/14 06:58:17;;;;;;;2.13;0.50;;;;;;;13.60;48.40;102306.31;5016702;28;20053;-68
2023/09/14 07:00:43;;;;;;;5.45;0.60;;;;;;;13.76;49.18;102304.06;5037122;28;20025;-67
2023/09/14 07:03:08;;;;;;;4.88;0.88;;;;;;;13.42;49.34;102306.84;5006846;28;20617;-68
2023/09/14 07:05:42;;;;;;;1.15;0.43;;;;;;;13.69;49.38;102305.19;5018539;28;20472;-67
2023/09/14 07:08:07;;;;;;;2.60;0.50;;;;;;;13.86;48.96;102305.53;5015791;28;20048;-69
2023/09/14 07:10:33;;;;;;;1.98;0.63;;;;;;;13.90;47.72;102306.31;5020302;28;20037;-68
2023/09/14 07:13:02;;;;;;;2.50;0.60;;;;;;;14.03;47.54;102309.38;4998666;28;20053;-68
2023/09/14 07:15:30;;;;;;;5.28;0.70;;;;;;;14.16;46.85;102310.72;5018740;28;20538;-68
2023/09/14 07:17:58;;;;;;;1.48;0.55;;;;;;;14.22;47.45;102309.66;5013111;28;20045;-69
2023/09/14 07:20:23;;;;;;;3.00;0.75;;;;;;;14.42;46.46;102315.16;5034966;28;20079;-69
2023/09/14 07:22:49;;;;;;;3.95;0.63;;;;;;;14.68;46.44;102318.66;5013114;28;20359;-70
2023/09/14 07:25:39;;;;;;;2.88;0.60;;;;;;;14.63;45.81;102313.56;5038918;28;20033;-68
2023/09/14 07:28:08;;;;;;;3.33;0.68;;;;;;;14.34;45.50;102315.38;5008716;28;20045;-69
2023/09/14 07:30:34;;;;;;;3.95;1.13;;;;;;;14.44;45.04;102318.59;5028333;28;20049;-68
2023/09/14 07:33:02;;;;;;;2.83;0.60;;;;;;;14.83;45.11;102319.91;5019491;28;20178;-69
2023/09/14 07:35:30;;;;;;;1.55;0.57;;;;;;;14.83;43.05;102319.91;5022409;28;20498;-68
2023/09/14 07:37:56;;;;;;;1.40;0.47;;;;;;;14.95;43.29;102319.50;5015706;28;20048;-68
2023/09/14 07:40:25;;;;;;;3.63;0.55;;;;;;;15.16;43.23;102320.47;5021222;28;20024;-68
2023/09/14 07:42:51;;;;;;;3.80;0.60;;;;;;;15.36;42.70;102318.00;5027422;28;20081;-68
2023/09/14 07:45:23;;;;;;;2.92;1.15;;;;;;;15.37;42.58;102324.09;5031985;28;20068;-68
2023/09/14 07:47:52;;;;;;;3.65;0.63;;;;;;;15.46;43.13;102329.06;5011325;28;20033;-68
2023/09/14 07:50:20;;;;;;;3.35;1.17;;;;;;;15.16;43.13;102331.84;5016926;28;20415;-68
2023/09/14 07:52:53;;;;;;;3.55;0.65;;;;;;;15.25;42.51;102337.75;5021565;28;20051;-68
2023/09/14 07:55:24;;;;;;;2.08;0.57;;;;;;;15.49;43.03;102328.94;5018149;28;20034;-68
2023/09/14 07:57:52;;;;;;;3.90;0.30;;;;;;;15.30;40.90;102323.47;5009700;28;20864;-68
2023/09/14 08:00:18;;;;;;;5.40;0.40;;;;;;;15.77;41.66;102323.47;5016752;28;20266;-68
2023/09/14 08:02:46;;;;;;;1.33;0.25;;;;;;;15.87;40.64;102328.38;5015473;28;20041;-68
2023/09/14 08:05:12;;;;;;;4.47;0.73;;;;;;;15.83;40.51;102327.63;5020791;28;20518;-68
2023/09/14 08:07:37;;;;;;;10.90;6.75;;;;;;;15.98;40.75;102334.94;5021650;28;20521;-69
2023/09/14 08:10:06;;;;;;;4.68;0.52;;;;;;;16.03;40.15;102332.16;5018286;28;20057;-68
2023/09/14 08:12:31;;;;;;;2.38;0.40;;;;;;;15.79;39.84;102334.81;5022737;28;20044;-70
2023/09/14 08:14:59;;;;;;;1.52;0.20;;;;;;;15.97;40.90;102333.22;5020940;28;20518;-68
2023/09/14 08:17:25;;;;;;;4.47;0.30;;;;;;;16.10;40.56;102346.78;4999370;28;20044;-69
2023/09/14 08:19:52;;;;;;;2.58;0.30;;;;;;;15.96;39.15;102349.09;4991941;28;20391;-70
2023/09/14 08:22:59;;;;;;;4.13;1.48;;;;;;;15.89;39.29;102348.47;4995023;28;20525;-67
2023/09/14 08:25:35;;;;;;;2.00;0.25;;;;;;;16.50;38.93;102346.94;5004629;28;20136;-67
2023/09/14 08:28:06;;;;;;;3.53;0.20;;;;;;;16.72;39.01;102334.56;4995694;28;20462;-67
2023/09/14 08:30:37;;;;;;;4.22;0.22;;;;;;;17.04;38.70;102340.25;5023107;28;20436;-67
2023/09/14 08:33:21;;;;;;;3.30;0.60;;;;;;;17.33;38.18;102340.72;4999954;28;20557;-67
2023/09/14 08:35:54;;;;;;;4.15;0.20;;;;;;;17.04;36.87;102340.25;5016814;28;20033;-67
2023/09/14 08:38:35;;;;;;;0.93;0.22;;;;;;;17.19;36.07;102338.72;5003854;28;20286;-67
2023/09/14 08:41:29;;;;;;;1.27;0.20;;;;;;;17.52;36.23;102346.91;5029261;28;20431;-69
2023/09/14 08:44:03;;;;;;;1.27;0.15;;;;;;;17.76;36.24;102349.31;5007076;28;20511;-69
2023/09/14 08:46:41;;;;;;;2.08;0.20;;;;;;;17.95;34.99;102355.47;5034215;28;20037;-67
2023/09/14 08:49:18;;;;;;;2.58;0.10;;;;;;;17.92;33.62;102355.63;5019076;28;20110;-69
2023/09/14 08:55:20;;;;;;;;;;;;;;;;;;;;;
2023/09/14 08:58:05;;;;;;;7.35;0.40;;;;;;;17.77;35.00;102362.47;5004263;28;20056;-69
2023/09/14 09:00:35;;;;;;;2.80;0.10;;;;;;;17.36;35.39;102359.09;5006946;28;20469;-69
2023/09/14 09:03:02;;;;;;;1.10;0.50;;;;;;;17.62;34.65;102349.97;5007045;28;20049;-68
2023/09/14 09:05:36;;;;;;;2.80;0.10;;;;;;;17.08;34.67;102356.81;5023272;28;20017;-70
2023/09/14 09:08:25;;;;;;;;;;;;;;;;;;;;;
2023/09/14 09:11:02;;;;;;;3.33;0.20;;;;;;;17.41;33.67;102355.31;5015158;28;19921;-67
2023/09/14 09:13:49;;;;;;;3.83;0.25;;;;;;;16.77;34.10;102353.72;5009650;28;20045;-67
2023/09/14 09:16:41;;;;;;;1.67;0.17;;;;;;;17.13;32.57;102349.53;5023169;28;20048;-67
2023/09/14 09:19:32;;;;;;;5.82;0.17;;;;;;;17.40;33.08;102355.34;4992807;28;20138;-67
2023/09/14 09:22:01;;;;;;;;;;;;;;;17.57;32.33;102350.19;5015186;28;20348;-67
2023/09/14 09:24:44;;;;;;;11.00;0.20;;;;;;;17.65;32.52;102360.44;5024957;28;20410;-69
2023/09/14 09:30:34;;;;;;;2.60;0.43;;;;;;;18.44;32.39;102355.72;5021919;28;20041;-68
2023/09/14 09:33:03;;;;;;;0.30;0.10;;;;;;;19.41;30.87;102349.84;4993166;28;20278;-70
2023/09/14 09:35:34;;;;;;;1.63;0.10;;;;;;;20.49;29.28;102345.53;5037729;28;20029;-70
2023/09/14 09:38:45;;;;;;;;;;;;;;;;;;;;;
2023/09/14 09:41:36;;;;;;;;;;;;;;;;;;;;;
2023/09/14 09:44:10;;;;;;;5.00;0.10;;;;;;;21.44;26.88;102336.19;5008144;28;20131;-69
2023/09/14 09:46:46;;;;;;;1.55;0.30;;;;;;;21.23;26.08;102330.44;5019673;28;20037;-69
2023/09/14 09:49:29;;;;;;;3.30;0.20;;;;;;;21.70;23.37;102323.94;5000828;28;20145;-67
2023/09/14 09:52:24;;;;;;;;;;;;;;;;;;;;;
2023/09/14 09:55:05;;;;;;;4.65;0.32;;;;;;;22.25;25.64;102314.16;5021034;28;20041;-68
2023/09/14 09:58:16;;;;;;;1.48;0.10;;;;;;;21.68;25.74;102314.34;5019251;28;20041;-68
2023/09/14 10:00:45;;;;;;;1.10;0.10;;;;;;;21.87;24.42;102313.97;5019085;28;20519;-70
2023/09/14 10:03:34;;;;;;;4.45;0.30;;;;;;;21.83;24.78;102320.47;5007066;28;20047;-67
2023/09/14 10:06:12;;;;;;;1.33;0.10;;;;;;;21.47;25.35;102321.88;5017940;28;20045;-68
2023/09/14 10:09:13;;;;;;;2.47;0.20;;;;;;;19.72;26.33;102317.22;5017195;28;20041;-68
2023/09/14 10:12:08;;;;;;;2.97;0.20;;;;;;;18.83;27.50;102328.16;5021032;28;20037;-68
2023/09/14 10:14:47;;;;;;;;;;;;;;;;;;;;;
2023/09/14 10:17:33;;;;;;;1.17;0.20;;;;;;;18.42;27.92;102328.47;5030557;28;20044;-68
2023/09/14 10:20:20;;;;;;;1.35;0.17;;;;;;;18.09;29.17;102330.13;5014067;28;20064;-68
2023/09/14 10:23:20;;;;;;;2.40;0.40;;;;;;;18.08;29.59;102339.00;4998426;28;20053;-68
2023/09/14 10:26:00;;;;;;;1.85;0.10;;;;;;;18.19;30.04;102334.94;5017826;28;20041;-68
2023/09/14 10:29:02;;;;;;;;;;;;;;;;;;;;;
2023/09/14 10:31:35;;;;;;;1.95;0.10;;;;;;;18.82;28.23;102331.72;5019978;28;20045;-68
2023/09/14 10:37:50;;;;;;;;;;;;;;;;;;;;;
2023/09/14 10:40:21;;;;;;;0.40;0.10;;;;;;;21.60;23.75;102325.50;5015241;28;20411;-69
2023/09/14 10:43:00;;;;;;;2.92;0.13;;;;;;;20.87;25.64;102322.97;5006279;28;20102;-69
2023/09/14 10:45:39;;;;;;;1.08;0.10;;;;;;;19.87;26.58;102329.63;5016864;28;20029;-69
2023/09/14 10:48:22;;;;;;;1.58;0.30;;;;;;;20.09;27.36;102325.75;4997938;28;20044;-68
2023/09/14 10:51:08;;;;;;;1.23;0.15;;;;;;;19.87;26.37;102331.41;5016333;28;20041;-69
2023/09/14 10:53:51;;;;;;;2.55;0.10;;;;;;;18.96;27.41;102327.53;4998781;28;20048;-68
2023/09/14 10:56:39;;;;;;;1.27;0.10;;;;;;;18.61;28.21;102330.22;5019762;28;20133;-68
2023/09/14 10:59:10;;;;;;;1.73;0.20;;;;;;;19.25;27.31;102324.16;5013303;28;20040;-68
2023/09/14 11:02:06;;;;;;;0.95;0.10;;;;;;;19.35;26.57;102323.69;5012582;28;20558;-68
2023/09/14 11:05:12;;;;;;;3.33;0.10;;;;;;;18.73;27.58;102326.91;4998236;28;20044;-69
2023/09/14 11:08:06;;;;;;;2.33;0.10;;;;;;;19.34;27.30;102322.81;4989371;28;20114;-68
2023/09/14 11:11:03;;;;;;;3.22;0.65;;;;;;;19.59;28.23;102318.84;5010499;28;20041;-68
2023/09/14 11:13:33;;;;;;;3.38;0.20;;;;;;;19.87;27.93;102321.66;4992830;28;20537;-69
2023/09/14 11:16:12;;;;;;;3.22;0.25;;;;;;;20.78;27.02;102324.34;5015057;28;20029;-68
2023/09/14 11:18:51;;;;;;;1.55;0.10;;;;;;;21.70;27.30;102323.94;5008049;28;20045;-68
2023/09/14 11:21:42;;;;;;;2.05;0.10;;;;;;;22.04;23.31;102316.38;5034956;28;20041;-69
2023/09/14 11:24:59;;;;;;;1.75;0.10;;;;;;;22.24;24.70;102308.91;4988032;28;20396;-69
2023/09/14 11:27:43;;;;;;;1.48;0.30;;;;;;;21.41;25.11;102303.66;5020408;28;20029;-68
2023/09/14 11:30:15;;;;;;;2.50;0.20;;;;;;;22.53;23.94;102298.94;5014916;28;20039;-68
2023/09/14 11:33:06;;;;;;;0.98;0.10;;;;;;;22.86;23.39;102306.44;5013213;28;20056;-68
2023/09/14 11:35:57;;;;;;;0.30;0.00;;;;;;;22.91;22.77;102306.09;5009723;28;20043;-68
2023/09/14 11:41:57;;;;;;;2.55;0.10;;;;;;;21.31;23.93;102306.91;5006622;28;20044;-70
2023/09/14 11:44:46;;;;;;;0.80;0.30;;;;;;;20.25;25.05;102304.50;5000050;28;20133;-71
2023/09/14 11:47:38;;;;;;;;;;;;;;;;;;;;;
2023/09/14 11:50:35;;;;;;;0.57;0.10;;;;;;;19.34;26.52;102300.75;5013907;28;20033;-73
2023/09/14 11:53:47;;;;;;;1.00;0.10;;;;;;;19.16;27.31;102297.31;5017602;28;20473;-73
2023/09/14 11:56:21;;;;;;;0.55;0.10;;;;;;;18.72;27.86;102303.16;5011487;28;20136;-73
2023/09/14 11:59:02;;;;;;;;;;;;;;;18.66;28.47;102305.19;5011439;28;20037;-73
2023/09/14 12:01:57;;;;;;;1.05;0.10;;;;;;;19.87;26.75;102310.19;5017320;28;20102;-73
2023/09/14 12:04:37;;;;;;;2.22;0.13;;;;;;;20.93;26.16;102302.19;4990175;28;20036;-71
2023/09/14 12:07:32;;;;;;;1.38;0.10;;;;;;;22.08;25.62;102301.94;5018995;28;20064;-71
2023/09/14 12:10:23;;;;;;;0.65;0.20;;;;;;;22.33;23.96;102303.81;5016903;28;20045;-72
2023/09/14 12:13:50;;;;;;;2.15;0.40;;;;;;;21.66;25.07;102305.59;5006453;28;20053;-72